Weather Data

Pearl Creek Farm: 8878 N Farm Road 75, Walnut Grove MO 65770

<== Previous Day (Monday 04 Jun 2018) | Next Day (Wednesday 06 Jun 2018) ==>

Summary Precipitation Data For Tuesday 05 June 2018

ElementValueUnits
Precipitation0"
Notes(none)
SourcePearl Creek Farm

Summary Temperature Data For Tuesday 05 June 2018

ElementValueUnits
High Temperature87 oF
Low Temperature62 oF
Average Temperature75 oF
High Humidity73 %
Low Humidity39 %
Average Humidity58 %
SourceSpringfield-Branson National Airport (SGF)

Detail Temperature Data For Tuesday 05 June 2018

Date / TimeTemp (F)RH (%)Dew Pt (F)Report Date / TimeSource
2018-06-05 00:52:00 64 70 54.0 2019-02-02 11:24:24.260017 Springfield-Branson National Airport (SGF)
2018-06-05 01:52:00 63 70 53.0 2019-02-02 11:24:24.260017 Springfield-Branson National Airport (SGF)
2018-06-05 02:52:00 63 70 53.0 2019-02-02 11:24:24.260017 Springfield-Branson National Airport (SGF)
2018-06-05 03:52:00 62 73 53.0 2019-02-02 11:24:24.260017 Springfield-Branson National Airport (SGF)
2018-06-05 04:52:00 63 73 54.0 2019-02-02 11:24:24.260017 Springfield-Branson National Airport (SGF)
2018-06-05 05:52:00 64 73 55.0 2019-02-02 11:24:24.260017 Springfield-Branson National Airport (SGF)
2018-06-05 06:52:00 68 68 57.0 2019-02-02 11:24:24.260017 Springfield-Branson National Airport (SGF)
2018-06-05 07:52:00 73 59 58.0 2019-02-02 11:24:24.260017 Springfield-Branson National Airport (SGF)
2018-06-05 08:52:00 77 56 60.0 2019-02-02 11:24:24.260017 Springfield-Branson National Airport (SGF)
2018-06-05 09:52:00 79 50 59.0 2019-02-02 11:24:24.260017 Springfield-Branson National Airport (SGF)
2018-06-05 10:52:00 82 46 59.0 2019-02-02 11:24:24.260017 Springfield-Branson National Airport (SGF)
2018-06-05 11:52:00 83 43 58.0 2019-02-02 11:24:24.260017 Springfield-Branson National Airport (SGF)
2018-06-05 12:52:00 84 41 58.0 2019-02-02 11:24:24.260017 Springfield-Branson National Airport (SGF)
2018-06-05 13:52:00 86 42 60.0 2019-02-02 11:24:24.260017 Springfield-Branson National Airport (SGF)
2018-06-05 14:52:00 86 42 60.0 2019-02-02 11:24:24.260017 Springfield-Branson National Airport (SGF)
2018-06-05 15:52:00 87 39 59.0 2019-02-02 11:24:24.260017 Springfield-Branson National Airport (SGF)
2018-06-05 16:52:00 85 43 60.0 2019-02-02 11:24:24.260017 Springfield-Branson National Airport (SGF)
2018-06-05 17:52:00 84 48 62.0 2019-02-02 11:24:24.260017 Springfield-Branson National Airport (SGF)
2018-06-05 18:52:00 81 54 63.0 2019-02-02 11:24:24.260017 Springfield-Branson National Airport (SGF)
2018-06-05 19:52:00 78 58 62.0 2019-02-02 11:24:24.260017 Springfield-Branson National Airport (SGF)
2018-06-05 20:52:00 76 62 62.0 2019-02-02 11:24:24.260017 Springfield-Branson National Airport (SGF)
2018-06-05 21:52:00 74 67 62.0 2019-02-02 11:24:24.260017 Springfield-Branson National Airport (SGF)
2018-06-05 22:52:00 73 66 61.0 2019-02-02 11:24:24.260017 Springfield-Branson National Airport (SGF)
2018-06-05 23:52:00 72 68 61.0 2019-02-02 11:24:24.260017 Springfield-Branson National Airport (SGF)

A total of 24 rows are displayed.